sensor_id;sensor_type;location;lat;lon;timestamp;pressure;altitude;pressure_sealevel;temperature;humidity
64141;BME280;50436;50.618;7.932;2023-12-20T00:02:15;96366.16;;;3.59;100.00
64141;BME280;50436;50.618;7.932;2023-12-20T00:05:00;96365.13;;;3.60;100.00
64141;BME280;50436;50.618;7.932;2023-12-20T00:07:46;96352.28;;;3.57;100.00
64141;BME280;50436;50.618;7.932;2023-12-20T00:10:32;96351.28;;;3.58;100.00
64141;BME280;50436;50.618;7.932;2023-12-20T00:13:18;96343.31;;;3.65;100.00
64141;BME280;50436;50.618;7.932;2023-12-20T00:16:04;96357.56;;;3.71;100.00
64141;BME280;50436;50.618;7.932;2023-12-20T00:18:50;96338.44;;;3.69;100.00
64141;BME280;50436;50.618;7.932;2023-12-20T00:21:36;96343.50;;;3.77;100.00
64141;BME280;50436;50.618;7.932;2023-12-20T00:24:22;96339.47;;;3.68;100.00
64141;BME280;50436;50.618;7.932;2023-12-20T00:27:08;96326.22;;;3.68;100.00
64141;BME280;50436;50.618;7.932;2023-12-20T00:29:54;96335.56;;;3.77;100.00
64141;BME280;50436;50.618;7.932;2023-12-20T00:32:39;96337.63;;;3.75;100.00
64141;BME280;50436;50.618;7.932;2023-12-20T00:35:31;96328.06;;;3.67;100.00
64141;BME280;50436;50.618;7.932;2023-12-20T00:38:19;96314.19;;;3.72;100.00
64141;BME280;50436;50.618;7.932;2023-12-20T00:41:05;96314.19;;;3.78;100.00
64141;BME280;50436;50.618;7.932;2023-12-20T00:43:51;96324.75;;;3.78;100.00
64141;BME280;50436;50.618;7.932;2023-12-20T00:46:37;96337.59;;;3.81;100.00
64141;BME280;50436;50.618;7.932;2023-12-20T00:49:23;96336.75;;;3.81;100.00
64141;BME280;50436;50.618;7.932;2023-12-20T00:52:09;96335.94;;;3.87;100.00
64141;BME280;50436;50.618;7.932;2023-12-20T00:54:54;96325.78;;;3.77;100.00
64141;BME280;50436;50.618;7.932;2023-12-20T00:57:40;96327.03;;;3.75;100.00
64141;BME280;50436;50.618;7.932;2023-12-20T01:00:26;96321.72;;;3.75;100.00
64141;BME280;50436;50.618;7.932;2023-12-20T01:03:12;96313.59;;;3.76;100.00
64141;BME280;50436;50.618;7.932;2023-12-20T01:05:59;96325.56;;;3.79;100.00
64141;BME280;50436;50.618;7.932;2023-12-20T01:08:47;96323.13;;;3.77;100.00
64141;BME280;50436;50.618;7.932;2023-12-20T01:11:33;96325.19;;;3.82;100.00
64141;BME280;50436;50.618;7.932;2023-12-20T01:14:19;96326.16;;;3.87;100.00
64141;BME280;50436;50.618;7.932;2023-12-20T01:17:05;96321.88;;;3.93;100.00
64141;BME280;50436;50.618;7.932;2023-12-20T01:19:51;96318.00;;;3.89;100.00
64141;BME280;50436;50.618;7.932;2023-12-20T01:22:37;96316.00;;;3.84;100.00
64141;BME280;50436;50.618;7.932;2023-12-20T01:25:22;96311.88;;;3.88;100.00
64141;BME280;50436;50.618;7.932;2023-12-20T01:28:08;96319.03;;;3.88;100.00
64141;BME280;50436;50.618;7.932;2023-12-20T01:30:54;96319.00;;;3.95;100.00
64141;BME280;50436;50.618;7.932;2023-12-20T01:33:40;96331.03;;;3.90;100.00
64141;BME280;50436;50.618;7.932;2023-12-20T01:36:26;96316.59;;;3.86;100.00
64141;BME280;50436;50.618;7.932;2023-12-20T01:39:12;96317.00;;;3.90;100.00
64141;BME280;50436;50.618;7.932;2023-12-20T01:42:00;96316.34;;;3.95;100.00
64141;BME280;50436;50.618;7.932;2023-12-20T01:44:47;96310.66;;;3.98;100.00
64141;BME280;50436;50.618;7.932;2023-12-20T01:47:33;96316.56;;;3.93;100.00
64141;BME280;50436;50.618;7.932;2023-12-20T01:50:20;96303.13;;;3.95;100.00
64141;BME280;50436;50.618;7.932;2023-12-20T01:53:07;96292.72;;;4.00;100.00
64141;BME280;50436;50.618;7.932;2023-12-20T01:55:56;96303.09;;;4.01;100.00
64141;BME280;50436;50.618;7.932;2023-12-20T01:58:44;96320.78;;;4.07;100.00
64141;BME280;50436;50.618;7.932;2023-12-20T02:01:31;96313.69;;;4.01;100.00
64141;BME280;50436;50.618;7.932;2023-12-20T02:04:17;96316.75;;;4.05;100.00
64141;BME280;50436;50.618;7.932;2023-12-20T02:07:03;96306.16;;;4.05;100.00
64141;BME280;50436;50.618;7.932;2023-12-20T02:09:50;96314.25;;;4.10;100.00
64141;BME280;50436;50.618;7.932;2023-12-20T02:12:35;96316.91;;;4.10;100.00
64141;BME280;50436;50.618;7.932;2023-12-20T02:15:21;96335.06;;;4.06;100.00
64141;BME280;50436;50.618;7.932;2023-12-20T02:18:10;96340.72;;;4.10;100.00
64141;BME280;50436;50.618;7.932;2023-12-20T02:20:56;96345.66;;;4.06;100.00
64141;BME280;50436;50.618;7.932;2023-12-20T02:23:42;96345.22;;;4.09;100.00
64141;BME280;50436;50.618;7.932;2023-12-20T02:26:27;96344.41;;;4.09;100.00
64141;BME280;50436;50.618;7.932;2023-12-20T02:29:14;96347.66;;;4.11;100.00
64141;BME280;50436;50.618;7.932;2023-12-20T02:32:00;96341.94;;;4.14;100.00
64141;BME280;50436;50.618;7.932;2023-12-20T02:34:47;96336.66;;;4.14;100.00
64141;BME280;50436;50.618;7.932;2023-12-20T02:37:33;96343.34;;;4.16;100.00
64141;BME280;50436;50.618;7.932;2023-12-20T02:40:19;96348.28;;;4.13;100.00
64141;BME280;50436;50.618;7.932;2023-12-20T02:43:05;96348.06;;;4.14;100.00
64141;BME280;50436;50.618;7.932;2023-12-20T02:45:51;96347.25;;;4.14;100.00
64141;BME280;50436;50.618;7.932;2023-12-20T02:48:37;96349.25;;;4.18;100.00
64141;BME280;50436;50.618;7.932;2023-12-20T02:51:23;96336.41;;;4.22;100.00
64141;BME280;50436;50.618;7.932;2023-12-20T02:54:09;96341.31;;;4.18;100.00
64141;BME280;50436;50.618;7.932;2023-12-20T02:56:55;96345.41;;;4.14;100.00
64141;BME280;50436;50.618;7.932;2023-12-20T02:59:40;96347.88;;;4.09;100.00
64141;BME280;50436;50.618;7.932;2023-12-20T03:02:26;96347.66;;;4.11;100.00
64141;BME280;50436;50.618;7.932;2023-12-20T03:05:12;96351.75;;;4.07;100.00
64141;BME280;50436;50.618;7.932;2023-12-20T03:07:58;96353.59;;;4.06;100.00
64141;BME280;50436;50.618;7.932;2023-12-20T03:10:44;96348.91;;;4.02;100.00
64141;BME280;50436;50.618;7.932;2023-12-20T03:13:30;96363.19;;;3.94;100.00
64141;BME280;50436;50.618;7.932;2023-12-20T03:16:15;96357.09;;;3.94;100.00
64141;BME280;50436;50.618;7.932;2023-12-20T03:19:02;96354.06;;;3.90;100.00
64141;BME280;50436;50.618;7.932;2023-12-20T03:21:48;96358.72;;;3.88;100.00
64141;BME280;50436;50.618;7.932;2023-12-20T03:24:34;96368.13;;;3.77;100.00
64141;BME280;50436;50.618;7.932;2023-12-20T03:27:19;96376.69;;;3.73;100.00
64141;BME280;50436;50.618;7.932;2023-12-20T03:30:06;96371.81;;;3.76;100.00
64141;BME280;50436;50.618;7.932;2023-12-20T03:32:52;96371.59;;;3.71;100.00
64141;BME280;50436;50.618;7.932;2023-12-20T03:35:37;96376.50;;;3.68;100.00
64141;BME280;50436;50.618;7.932;2023-12-20T03:38:23;96377.53;;;3.67;100.00
64141;BME280;50436;50.618;7.932;2023-12-20T03:41:10;96380.78;;;3.62;100.00
64141;BME280;50436;50.618;7.932;2023-12-20T03:43:56;96380.41;;;3.58;100.00
64141;BME280;50436;50.618;7.932;2023-12-20T03:46:41;96384.69;;;3.53;100.00
64141;BME280;50436;50.618;7.932;2023-12-20T03:49:27;96382.44;;;3.50;100.00
64141;BME280;50436;50.618;7.932;2023-12-20T03:52:13;96393.44;;;3.47;100.00
64141;BME280;50436;50.618;7.932;2023-12-20T03:54:59;96395.69;;;3.30;100.00
64141;BME280;50436;50.618;7.932;2023-12-20T03:57:45;96399.56;;;3.27;100.00
64141;BME280;50436;50.618;7.932;2023-12-20T04:00:31;96395.69;;;3.17;100.00
64141;BME280;50436;50.618;7.932;2023-12-20T04:03:17;96408.88;;;3.03;100.00
64141;BME280;50436;50.618;7.932;2023-12-20T04:06:03;96381.00;;;2.88;100.00
64141;BME280;50436;50.618;7.932;2023-12-20T04:08:49;96384.47;;;2.95;100.00
64141;BME280;50436;50.618;7.932;2023-12-20T04:11:35;96395.66;;;3.03;100.00
64141;BME280;50436;50.618;7.932;2023-12-20T04:14:21;96384.28;;;3.10;100.00
64141;BME280;50436;50.618;7.932;2023-12-20T04:17:06;96385.31;;;3.15;100.00
64141;BME280;50436;50.618;7.932;2023-12-20T04:19:52;96382.88;;;3.14;100.00
64141;BME280;50436;50.618;7.932;2023-12-20T04:22:38;96387.94;;;3.15;100.00
64141;BME280;50436;50.618;7.932;2023-12-20T04:25:24;96386.53;;;3.19;100.00
64141;BME280;50436;50.618;7.932;2023-12-20T04:28:10;96394.06;;;3.22;100.00
64141;BME280;50436;50.618;7.932;2023-12-20T04:30:56;96411.97;;;3.20;100.00
64141;BME280;50436;50.618;7.932;2023-12-20T04:33:42;96396.69;;;3.22;100.00
64141;BME280;50436;50.618;7.932;2023-12-20T04:36:28;96399.13;;;3.24;100.00
64141;BME280;50436;50.618;7.932;2023-12-20T04:39:15;96396.50;;;3.24;100.00
64141;BME280;50436;50.618;7.932;2023-12-20T04:42:01;96400.97;;;3.23;100.00
64141;BME280;50436;50.618;7.932;2023-12-20T04:44:47;96394.28;;;3.21;100.00
64141;BME280;50436;50.618;7.932;2023-12-20T04:47:33;96384.28;;;3.16;100.00
64141;BME280;50436;50.618;7.932;2023-12-20T04:50:19;96383.69;;;3.14;100.00
64141;BME280;50436;50.618;7.932;2023-12-20T04:53:05;96392.84;;;3.12;100.00
64141;BME280;50436;50.618;7.932;2023-12-20T04:55:51;96404.84;;;3.14;100.00
64141;BME280;50436;50.618;7.932;2023-12-20T04:58:37;96382.03;;;3.00;100.00
64141;BME280;50436;50.618;7.932;2023-12-20T05:01:22;96390.78;;;2.94;100.00
64141;BME280;50436;50.618;7.932;2023-12-20T05:04:08;96402.19;;;3.01;100.00
64141;BME280;50436;50.618;7.932;2023-12-20T05:06:54;96394.84;;;3.03;100.00
64141;BME280;50436;50.618;7.932;2023-12-20T05:09:40;96407.69;;;3.06;100.00
64141;BME280;50436;50.618;7.932;2023-12-20T05:12:27;96404.84;;;3.07;100.00
64141;BME280;50436;50.618;7.932;2023-12-20T05:15:13;96408.28;;;3.01;100.00
64141;BME280;50436;50.618;7.932;2023-12-20T05:17:58;96416.63;;;2.98;100.00
64141;BME280;50436;50.618;7.932;2023-12-20T05:20:44;96391.41;;;3.02;100.00
64141;BME280;50436;50.618;7.932;2023-12-20T05:23:31;96389.16;;;2.93;100.00
64141;BME280;50436;50.618;7.932;2023-12-20T05:26:17;96390.38;;;2.90;100.00
64141;BME280;50436;50.618;7.932;2023-12-20T05:29:03;96393.63;;;2.92;100.00
64141;BME280;50436;50.618;7.932;2023-12-20T05:31:49;96399.75;;;2.99;100.00
64141;BME280;50436;50.618;7.932;2023-12-20T05:34:34;96396.50;;;3.04;100.00
64141;BME280;50436;50.618;7.932;2023-12-20T05:37:20;96387.94;;;3.08;100.00
64141;BME280;50436;50.618;7.932;2023-12-20T05:40:06;96395.50;;;3.12;100.00
64141;BME280;50436;50.618;7.932;2023-12-20T05:42:55;96397.72;;;3.15;100.00
64141;BME280;50436;50.618;7.932;2023-12-20T05:45:41;96396.09;;;3.14;100.00
64141;BME280;50436;50.618;7.932;2023-12-20T05:48:27;96390.00;;;3.06;100.00
64141;BME280;50436;50.618;7.932;2023-12-20T05:51:13;96388.38;;;3.12;100.00
64141;BME280;50436;50.618;7.932;2023-12-20T05:53:59;96397.94;;;3.13;100.00
64141;BME280;50436;50.618;7.932;2023-12-20T05:56:45;96405.22;;;3.11;100.00
64141;BME280;50436;50.618;7.932;2023-12-20T05:59:31;96405.66;;;3.08;100.00
64141;BME280;50436;50.618;7.932;2023-12-20T06:02:17;96407.47;;;3.07;100.00
64141;BME280;50436;50.618;7.932;2023-12-20T06:05:06;96409.91;;;3.09;100.00
64141;BME280;50436;50.618;7.932;2023-12-20T06:07:52;96427.41;;;3.10;100.00
64141;BME280;50436;50.618;7.932;2023-12-20T06:10:38;96412.16;;;3.05;100.00
64141;BME280;50436;50.618;7.932;2023-12-20T06:13:24;96410.53;;;3.04;100.00
64141;BME280;50436;50.618;7.932;2023-12-20T06:16:09;96416.00;;;3.03;100.00
64141;BME280;50436;50.618;7.932;2023-12-20T06:18:55;96412.75;;;3.07;100.00
64141;BME280;50436;50.618;7.932;2023-12-20T06:21:41;96425.97;;;3.07;100.00
64141;BME280;50436;50.618;7.932;2023-12-20T06:24:27;96416.63;;;3.05;100.00
64141;BME280;50436;50.618;7.932;2023-12-20T06:27:13;96421.69;;;3.00;100.00
64141;BME280;50436;50.618;7.932;2023-12-20T06:29:59;96425.97;;;3.01;100.00
64141;BME280;50436;50.618;7.932;2023-12-20T06:32:45;96413.78;;;3.00;100.00
64141;BME280;50436;50.618;7.932;2023-12-20T06:35:32;96407.88;;;3.04;100.00
64141;BME280;50436;50.618;7.932;2023-12-20T06:38:18;96416.44;;;3.06;100.00
64141;BME280;50436;50.618;7.932;2023-12-20T06:41:05;96417.03;;;3.08;100.00
64141;BME280;50436;50.618;7.932;2023-12-20T06:43:51;96429.66;;;3.06;100.00
64141;BME280;50436;50.618;7.932;2023-12-20T06:46:38;96419.69;;;3.08;100.00
64141;BME280;50436;50.618;7.932;2023-12-20T06:49:24;96413.38;;;3.10;100.00
64141;BME280;50436;50.618;7.932;2023-12-20T06:52:10;96422.53;;;3.14;100.00
64141;BME280;50436;50.618;7.932;2023-12-20T06:54:56;96423.72;;;3.11;100.00
64141;BME280;50436;50.618;7.932;2023-12-20T06:57:42;96412.16;;;3.12;100.00
64141;BME280;50436;50.618;7.932;2023-12-20T07:00:28;96414.81;;;3.12;100.00
64141;BME280;50436;50.618;7.932;2023-12-20T07:03:14;96421.94;;;3.12;100.00
64141;BME280;50436;50.618;7.932;2023-12-20T07:05:59;96427.81;;;3.14;100.00
64141;BME280;50436;50.618;7.932;2023-12-20T07:08:45;96417.03;;;3.08;100.00
64141;BME280;50436;50.618;7.932;2023-12-20T07:11:31;96416.66;;;3.12;100.00
64141;BME280;50436;50.618;7.932;2023-12-20T07:14:17;96407.88;;;3.11;100.00
64141;BME280;50436;50.618;7.932;2023-12-20T07:17:03;96410.94;;;3.08;100.00
64141;BME280;50436;50.618;7.932;2023-12-20T07:19:49;96417.44;;;2.99;100.00
64141;BME280;50436;50.618;7.932;2023-12-20T07:22:37;96435.72;;;3.00;100.00
64141;BME280;50436;50.618;7.932;2023-12-20T07:25:23;96418.44;;;2.98;100.00
64141;BME280;50436;50.618;7.932;2023-12-20T07:28:09;96425.97;;;2.94;100.00
64141;BME280;50436;50.618;7.932;2023-12-20T07:30:55;96435.31;;;2.90;100.00
64141;BME280;50436;50.618;7.932;2023-12-20T07:33:41;96424.94;;;2.95;100.00
64141;BME280;50436;50.618;7.932;2023-12-20T07:36:27;96419.84;;;2.94;100.00
64141;BME280;50436;50.618;7.932;2023-12-20T07:39:14;96420.66;;;2.94;100.00
64141;BME280;50436;50.618;7.932;2023-12-20T07:41:59;96410.53;;;2.98;100.00
64141;BME280;50436;50.618;7.932;2023-12-20T07:44:45;96423.75;;;2.98;100.00
64141;BME280;50436;50.618;7.932;2023-12-20T07:47:31;96429.44;;;3.01;100.00
64141;BME280;50436;50.618;7.932;2023-12-20T07:50:17;96444.50;;;3.07;100.00
64141;BME280;50436;50.618;7.932;2023-12-20T07:53:03;96445.09;;;3.10;100.00
64141;BME280;50436;50.618;7.932;2023-12-20T07:55:49;96444.28;;;3.09;100.00
64141;BME280;50436;50.618;7.932;2023-12-20T07:58:35;96430.03;;;3.10;100.00
64141;BME280;50436;50.618;7.932;2023-12-20T08:01:21;96441.03;;;3.14;100.00
64141;BME280;50436;50.618;7.932;2023-12-20T08:04:06;96455.69;;;3.16;100.00
64141;BME280;50436;50.618;7.932;2023-12-20T08:06:52;96449.59;;;3.16;100.00
64141;BME280;50436;50.618;7.932;2023-12-20T08:09:38;96447.16;;;3.21;100.00
64141;BME280;50436;50.618;7.932;2023-12-20T08:12:24;96462.22;;;3.20;100.00
64141;BME280;50436;50.618;7.932;2023-12-20T08:15:13;96455.31;;;3.19;100.00
64141;BME280;50436;50.618;7.932;2023-12-20T08:18:00;96474.19;;;3.16;100.00
64141;BME280;50436;50.618;7.932;2023-12-20T08:20:46;96469.34;;;3.20;100.00
64141;BME280;50436;50.618;7.932;2023-12-20T08:23:33;96454.06;;;3.15;100.00
64141;BME280;50436;50.618;7.932;2023-12-20T08:26:19;96455.09;;;3.21;100.00
64141;BME280;50436;50.618;7.932;2023-12-20T08:29:15;96478.91;;;3.21;100.00
64141;BME280;50436;50.618;7.932;2023-12-20T08:32:03;96478.09;;;3.20;100.00
64141;BME280;50436;50.618;7.932;2023-12-20T08:34:50;96464.44;;;3.23;100.00
64141;BME280;50436;50.618;7.932;2023-12-20T08:37:36;96472.59;;;3.28;100.00
64141;BME280;50436;50.618;7.932;2023-12-20T08:40:22;96464.88;;;3.27;100.00
64141;BME280;50436;50.618;7.932;2023-12-20T08:43:08;96477.06;;;3.34;100.00
64141;BME280;50436;50.618;7.932;2023-12-20T08:45:54;96478.06;;;3.33;100.00
64141;BME280;50436;50.618;7.932;2023-12-20T08:48:40;96467.50;;;3.40;100.00
64141;BME280;50436;50.618;7.932;2023-12-20T08:51:25;96473.41;;;3.35;100.00
64141;BME280;50436;50.618;7.932;2023-12-20T08:54:11;96465.47;;;3.35;100.00
64141;BME280;50436;50.618;7.932;2023-12-20T08:56:58;96474.84;;;3.38;100.00
64141;BME280;50436;50.618;7.932;2023-12-20T08:59:44;96476.25;;;3.41;100.00
64141;BME280;50436;50.618;7.932;2023-12-20T09:02:30;96470.75;;;3.42;100.00
64141;BME280;50436;50.618;7.932;2023-12-20T09:05:16;96471.38;;;3.44;100.00
64141;BME280;50436;50.618;7.932;2023-12-20T09:08:02;96475.66;;;3.45;100.00
64141;BME280;50436;50.618;7.932;2023-12-20T09:10:48;96474.84;;;3.45;100.00
64141;BME280;50436;50.618;7.932;2023-12-20T09:13:34;96449.19;;;3.45;100.00
64141;BME280;50436;50.618;7.932;2023-12-20T09:16:20;96459.78;;;3.45;100.00
64141;BME280;50436;50.618;7.932;2023-12-20T09:19:06;96450.81;;;3.46;100.00
64141;BME280;50436;50.618;7.932;2023-12-20T09:21:51;96459.38;;;3.48;100.00
64141;BME280;50436;50.618;7.932;2023-12-20T09:24:38;96447.75;;;3.49;100.00
64141;BME280;50436;50.618;7.932;2023-12-20T09:27:24;96467.09;;;3.50;100.00
64141;BME280;50436;50.618;7.932;2023-12-20T09:30:10;96456.13;;;3.66;100.00
64141;BME280;50436;50.618;7.932;2023-12-20T09:32:56;96460.59;;;3.59;100.00
64141;BME280;50436;50.618;7.932;2023-12-20T09:35:42;96482.75;;;3.58;100.00
64141;BME280;50436;50.618;7.932;2023-12-20T09:38:28;96470.78;;;3.69;100.00
64141;BME280;50436;50.618;7.932;2023-12-20T09:41:14;96469.53;;;3.64;100.00
64141;BME280;50436;50.618;7.932;2023-12-20T09:44:02;96472.81;;;3.67;100.00
64141;BME280;50436;50.618;7.932;2023-12-20T09:46:49;96474.00;;;3.57;100.00
64141;BME280;50436;50.618;7.932;2023-12-20T09:49:36;96484.00;;;3.55;100.00
64141;BME280;50436;50.618;7.932;2023-12-20T09:52:24;96474.66;;;3.59;100.00
64141;BME280;50436;50.618;7.932;2023-12-20T09:55:09;96474.66;;;3.59;100.00
64141;BME280;50436;50.618;7.932;2023-12-20T09:57:55;96472.81;;;3.67;100.00
64141;BME280;50436;50.618;7.932;2023-12-20T10:00:41;96482.75;;;3.64;100.00
64141;BME280;50436;50.618;7.932;2023-12-20T10:03:27;96473.63;;;3.60;100.00
64141;BME280;50436;50.618;7.932;2023-12-20T10:06:13;96465.25;;;3.63;100.00
64141;BME280;50436;50.618;7.932;2023-12-20T10:08:59;96452.84;;;3.57;100.00
64141;BME280;50436;50.618;7.932;2023-12-20T10:11:45;96454.88;;;3.62;100.00
64141;BME280;50436;50.618;7.932;2023-12-20T10:14:32;96447.16;;;3.67;100.00
64141;BME280;50436;50.618;7.932;2023-12-20T10:17:18;96447.16;;;3.74;100.00
64141;BME280;50436;50.618;7.932;2023-12-20T10:20:04;96441.03;;;3.73;100.00
64141;BME280;50436;50.618;7.932;2023-12-20T10:22:56;96439.00;;;3.69;100.00
64141;BME280;50436;50.618;7.932;2023-12-20T10:25:42;96447.34;;;3.66;100.00
64141;BME280;50436;50.618;7.932;2023-12-20T10:28:33;96446.13;;;3.68;100.00
64141;BME280;50436;50.618;7.932;2023-12-20T10:31:30;96439.00;;;3.69;100.00
64141;BME280;50436;50.618;7.932;2023-12-20T10:34:16;96450.41;;;3.69;100.00
64141;BME280;50436;50.618;7.932;2023-12-20T10:37:02;96445.31;;;3.61;100.00
64141;BME280;50436;50.618;7.932;2023-12-20T10:39:50;96450.19;;;3.64;100.00
64141;BME280;50436;50.618;7.932;2023-12-20T10:42:41;96434.13;;;3.59;100.00
64141;BME280;50436;50.618;7.932;2023-12-20T10:45:28;96435.75;;;3.53;100.00
64141;BME280;50436;50.618;7.932;2023-12-20T10:48:15;96448.34;;;3.64;100.00
64141;BME280;50436;50.618;7.932;2023-12-20T10:51:03;96432.47;;;3.71;100.00
64141;BME280;50436;50.618;7.932;2023-12-20T10:53:53;96440.03;;;3.74;100.00
64141;BME280;50436;50.618;7.932;2023-12-20T10:56:39;96448.78;;;3.81;100.00
64141;BME280;50436;50.618;7.932;2023-12-20T10:59:27;96453.06;;;3.76;100.00
64141;BME280;50436;50.618;7.932;2023-12-20T11:02:15;96437.59;;;3.66;100.00
64141;BME280;50436;50.618;7.932;2023-12-20T11:05:19;96449.97;;;3.66;100.00
64141;BME280;50436;50.618;7.932;2023-12-20T11:11:27;96437.16;;;3.76;100.00
64141;BME280;50436;50.618;7.932;2023-12-20T11:14:20;96457.31;;;3.77;100.00
64141;BME280;50436;50.618;7.932;2023-12-20T11:17:11;96442.03;;;3.66;100.00
64141;BME280;50436;50.618;7.932;2023-12-20T11:20:07;96424.31;;;3.79;100.00
64141;BME280;50436;50.618;7.932;2023-12-20T11:22:54;96431.66;;;3.84;100.00
64141;BME280;50436;50.618;7.932;2023-12-20T11:25:52;96425.56;;;3.77;100.00
64141;BME280;50436;50.618;7.932;2023-12-20T11:28:38;96427.97;;;3.85;100.00
64141;BME280;50436;50.618;7.932;2023-12-20T11:31:26;96430.03;;;3.89;100.00
64141;BME280;50436;50.618;7.932;2023-12-20T11:34:13;96420.25;;;3.90;100.00
64141;BME280;50436;50.618;7.932;2023-12-20T11:37:02;96413.28;;;4.02;100.00
64141;BME280;50436;50.618;7.932;2023-12-20T11:40:15;96409.59;;;4.03;100.00
64141;BME280;50436;50.618;7.932;2023-12-20T11:43:02;96405.94;;;4.04;100.00
64141;BME280;50436;50.618;7.932;2023-12-20T11:45:51;96409.00;;;4.08;100.00
64141;BME280;50436;50.618;7.932;2023-12-20T11:48:38;96406.34;;;4.01;100.00
64141;BME280;50436;50.618;7.932;2023-12-20T11:51:25;96407.59;;;3.92;100.00
64141;BME280;50436;50.618;7.932;2023-12-20T11:54:11;96407.41;;;3.94;100.00
64141;BME280;50436;50.618;7.932;2023-12-20T11:56:57;96405.34;;;3.89;100.00
64141;BME280;50436;50.618;7.932;2023-12-20T11:59:43;96408.84;;;3.83;100.00
64141;BME280;50436;50.618;7.932;2023-12-20T12:02:30;96425.75;;;3.82;100.00
64141;BME280;50436;50.618;7.932;2023-12-20T12:05:16;96412.69;;;3.87;100.00
64141;BME280;50436;50.618;7.932;2023-12-20T12:08:02;96412.91;;;3.92;100.00
64141;BME280;50436;50.618;7.932;2023-12-20T12:10:48;96389.66;;;3.94;100.00
64141;BME280;50436;50.618;7.932;2023-12-20T12:13:34;96391.72;;;3.92;100.00
64141;BME280;50436;50.618;7.932;2023-12-20T12:16:20;96381.50;;;3.96;100.00
64141;BME280;50436;50.618;7.932;2023-12-20T12:19:06;96392.34;;;3.87;100.00
64141;BME280;50436;50.618;7.932;2023-12-20T12:22:15;96386.44;;;3.92;100.00
64141;BME280;50436;50.618;7.932;2023-12-20T12:25:12;96385.19;;;3.95;100.00
64141;BME280;50436;50.618;7.932;2023-12-20T12:27:58;96386.00;;;3.95;100.00
64141;BME280;50436;50.618;7.932;2023-12-20T12:31:05;96387.38;;;4.04;100.00
64141;BME280;50436;50.618;7.932;2023-12-20T12:33:51;96381.28;;;4.04;100.00
64141;BME280;50436;50.618;7.932;2023-12-20T12:36:37;96372.16;;;4.00;100.00
64141;BME280;50436;50.618;7.932;2023-12-20T12:39:23;96367.00;;;4.11;100.00
64141;BME280;50436;50.618;7.932;2023-12-20T12:42:16;96371.72;;;4.03;100.00
64141;BME280;50436;50.618;7.932;2023-12-20T12:45:01;96370.06;;;4.08;100.00
64141;BME280;50436;50.618;7.932;2023-12-20T12:47:47;96364.56;;;4.10;100.00
64141;BME280;50436;50.618;7.932;2023-12-20T12:50:33;96364.78;;;4.08;100.00
64141;BME280;50436;50.618;7.932;2023-12-20T12:53:20;96354.78;;;4.10;100.00
64141;BME280;50436;50.618;7.932;2023-12-20T12:56:06;96351.09;;;4.11;100.00
64141;BME280;50436;50.618;7.932;2023-12-20T12:58:52;96340.31;;;4.13;100.00
64141;BME280;50436;50.618;7.932;2023-12-20T13:01:37;96339.91;;;4.16;100.00
64141;BME280;50436;50.618;7.932;2023-12-20T13:04:24;96345.81;;;4.11;100.00
64141;BME280;50436;50.618;7.932;2023-12-20T13:07:10;96331.78;;;4.04;100.00
64141;BME280;50436;50.618;7.932;2023-12-20T13:09:57;96335.66;;;4.08;100.00
64141;BME280;50436;50.618;7.932;2023-12-20T13:12:43;96343.16;;;4.11;100.00
64141;BME280;50436;50.618;7.932;2023-12-20T13:15:29;96315.47;;;4.14;100.00
64141;BME280;50436;50.618;7.932;2023-12-20T13:18:17;96319.94;;;4.13;100.00
64141;BME280;50436;50.618;7.932;2023-12-20T13:21:04;96313.53;;;4.28;100.00
64141;BME280;50436;50.618;7.932;2023-12-20T13:23:50;96304.84;;;4.21;100.00
64141;BME280;50436;50.618;7.932;2023-12-20T13:26:36;96304.84;;;4.21;100.00
64141;BME280;50436;50.618;7.932;2023-12-20T13:29:21;96314.41;;;4.22;100.00
64141;BME280;50436;50.618;7.932;2023-12-20T13:32:07;96321.13;;;4.24;100.00
64141;BME280;50436;50.618;7.932;2023-12-20T13:34:53;96306.28;;;4.16;100.00
64141;BME280;50436;50.618;7.932;2023-12-20T13:37:39;96298.38;;;4.03;100.00
64141;BME280;50436;50.618;7.932;2023-12-20T13:40:25;96286.97;;;4.03;100.00
64141;BME280;50436;50.618;7.932;2023-12-20T13:43:11;96287.38;;;4.06;100.00
64141;BME280;50436;50.618;7.932;2023-12-20T13:46:01;96292.69;;;4.06;100.00
64141;BME280;50436;50.618;7.932;2023-12-20T13:48:49;96296.53;;;4.10;100.00
64141;BME280;50436;50.618;7.932;2023-12-20T13:51:35;96288.41;;;4.05;100.00
64141;BME280;50436;50.618;7.932;2023-12-20T13:54:21;96291.88;;;4.06;100.00
64141;BME280;50436;50.618;7.932;2023-12-20T13:57:07;96285.56;;;4.07;100.00
64141;BME280;50436;50.618;7.932;2023-12-20T13:59:54;96285.13;;;4.10;100.00
64141;BME280;50436;50.618;7.932;2023-12-20T14:02:41;96280.81;;;4.15;100.00
64141;BME280;50436;50.618;7.932;2023-12-20T14:05:28;96276.13;;;4.17;100.00
64141;BME280;50436;50.618;7.932;2023-12-20T14:08:14;96264.91;;;4.22;100.00
64141;BME280;50436;50.618;7.932;2023-12-20T14:10:59;96252.72;;;4.14;100.00
64141;BME280;50436;50.618;7.932;2023-12-20T14:13:47;96250.69;;;4.10;100.00
64141;BME280;50436;50.618;7.932;2023-12-20T14:16:33;96262.34;;;4.02;100.00
64141;BME280;50436;50.618;7.932;2023-12-20T14:19:19;96259.69;;;4.02;100.00
64141;BME280;50436;50.618;7.932;2023-12-20T14:22:05;96271.91;;;4.03;100.00
64141;BME280;50436;50.618;7.932;2023-12-20T14:24:52;96265.81;;;4.03;100.00
64141;BME280;50436;50.618;7.932;2023-12-20T14:27:38;96259.72;;;3.96;100.00
64141;BME280;50436;50.618;7.932;2023-12-20T14:30:25;96260.97;;;3.93;100.00
64141;BME280;50436;50.618;7.932;2023-12-20T14:33:14;96257.94;;;3.89;100.00
64141;BME280;50436;50.618;7.932;2023-12-20T14:36:00;96269.94;;;3.92;100.00
64141;BME280;50436;50.618;7.932;2023-12-20T14:38:46;96267.50;;;3.90;100.00
64141;BME280;50436;50.618;7.932;2023-12-20T14:41:32;96264.84;;;3.97;100.00
64141;BME280;50436;50.618;7.932;2023-12-20T14:46:59;96263.63;;;3.93;100.00
64141;BME280;50436;50.618;7.932;2023-12-20T14:49:48;96254.91;;;3.86;100.00